フェアバンクス の空港の天気 - METARとTAF

フェアバンクス国際空港 ( PAFA / FAI ) - アメリカ アラスカ州フェアバンクス
飛行場実況気象(Metar)
観測時間02/17 05:53 AKST (02/17 14:53 UTC)
風向・風速静穏 0m/s
視程10km以上
天気現象
全天の4割程度の雲 雲底高度 2440m
全天の8割程度の雲 雲底高度 3050m
気温-14.4℃
湿度79%
気圧1019.6hPa
METARPAFA 171453Z 00000KT 10SM SCT080 BKN100 M14/M17 A3007 RMK AO2 SLP196 T11441172 58033 PNO
過去の天気等 Google飛行場航空写真 Wunderground天気予報

過去48時間のMETAR

飛行場予報(TAF)
発表時間: 2/17 02:41 AKST (2/17 11:41 UTC)
予報対象時間: 17日3時 AKST ~ 18日9時 AKST
風向・風速北東 3m/s
視程10km以上
全天の8割程度の雲 雲底高度 3660m
17日14時 AKST から
風向・風速北東 4m/s
視程10km以上
全天の8割程度の雲 雲底高度 1830m
17日14時 AKST から 確率 30% で
天気現象弱い氷雨雪
全天の8割程度の雲 雲底高度 1220m
17日19時 AKST から
風向・風速北北西 3m/s
視程1610m
天気現象弱い雪 もや
全天を覆う雲 雲底高度 460m
PAFA 171141Z 1712/1818 05005KT P6SM BKN120
FM172300 05008KT P6SM BKN060
PROB30 1723/1804 -FZRASN BKN040
FM180400 33005KT 1SM -SN BR OVC015